Time;durP1;ratioP1;P1;durP2;ratioP2;P2;SDS_P1;SDS_P2;PMS_P1;PMS_P2;Temp;Humidity;BMP_temperature;BMP_pressure;BME280_temperature;BME280_humidity;BME280_pressure;Samples;Min_cycle;Max_cycle;Signal;HPM_P1;HPM_P2
2023/07/02 00:00:32;;;;;;;24.42;17.98;;;21.80;79.20;;;;;;4998381;28;20337;-70
2023/07/02 00:03:01;;;;;;;19.80;14.88;;;21.80;79.20;;;;;;4998191;28;20038;-70
2023/07/02 00:05:27;;;;;;;22.83;17.33;;;21.80;79.30;;;;;;4997380;28;20114;-69
2023/07/02 00:07:53;;;;;;;31.00;24.67;;;21.80;79.40;;;;;;4998751;28;20101;-69
2023/07/02 00:10:18;;;;;;;29.42;21.98;;;21.80;79.70;;;;;;4998118;28;20366;-69
2023/07/02 00:12:44;;;;;;;32.90;24.67;;;21.80;79.70;;;;;;4998511;28;20022;-69
2023/07/02 00:15:10;;;;;;;26.58;19.38;;;21.70;79.90;;;;;;4998075;28;20027;-69
2023/07/02 00:17:39;;;;;;;30.67;22.02;;;21.70;79.70;;;;;;4998327;28;20038;-69
2023/07/02 00:20:13;;;;;;;26.98;18.98;;;21.60;79.90;;;;;;4997997;28;20109;-70
2023/07/02 00:22:44;;;;;;;29.33;19.70;;;21.60;79.80;;;;;;4998151;28;20105;-70
2023/07/02 00:25:10;;;;;;;19.20;14.57;;;21.60;80.00;;;;;;4997903;28;20442;-69
2023/07/02 00:27:38;;;;;;;30.20;21.67;;;21.60;79.90;;;;;;4997857;28;20519;-69
2023/07/02 00:30:04;;;;;;;32.72;22.30;;;21.50;79.90;;;;;;4997777;28;20026;-70
2023/07/02 00:32:30;;;;;;;28.65;20.02;;;21.50;80.00;;;;;;4998027;28;20046;-68
2023/07/02 00:34:56;;;;;;;27.27;19.45;;;21.50;80.20;;;;;;4997256;28;20533;-68
2023/07/02 00:37:22;;;;;;;19.83;15.23;;;21.50;79.90;;;;;;4997954;28;20022;-69
2023/07/02 00:39:48;;;;;;;20.67;14.00;;;21.40;80.00;;;;;;4998121;28;20458;-68
2023/07/02 00:42:14;;;;;;;22.75;14.68;;;21.50;80.00;;;;;;4997817;28;20019;-68
2023/07/02 00:44:40;;;;;;;19.38;13.90;;;21.40;80.00;;;;;;4997454;28;20030;-69
2023/07/02 00:47:10;;;;;;;20.23;14.55;;;21.40;80.00;;;;;;4996521;28;20411;-70
2023/07/02 00:49:36;;;;;;;27.10;18.33;;;21.40;79.90;;;;;;5012688;28;20340;-69
2023/07/02 00:52:03;;;;;;;21.33;15.95;;;21.40;80.00;;;;;;4997853;28;20443;-69
2023/07/02 00:54:30;;;;;;;24.98;18.50;;;21.40;80.00;;;;;;4997574;28;20072;-68
2023/07/02 00:56:56;;;;;;;24.08;17.27;;;21.40;80.10;;;;;;4997307;28;20102;-69
2023/07/02 00:59:22;;;;;;;18.40;13.88;;;21.30;80.10;;;;;;4997708;28;20428;-69
2023/07/02 01:01:49;;;;;;;19.35;14.55;;;21.30;80.00;;;;;;4997418;28;20403;-68
2023/07/02 01:04:19;;;;;;;24.38;18.20;;;21.30;80.00;;;;;;4997297;28;20040;-70
2023/07/02 01:06:45;;;;;;;21.58;17.05;;;21.30;80.00;;;;;;4997346;28;20034;-70
2023/07/02 01:09:11;;;;;;;22.20;14.98;;;21.30;80.20;;;;;;4997583;28;20321;-70
2023/07/02 01:11:42;;;;;;;21.88;16.70;;;21.20;80.10;;;;;;4996920;28;20026;-70
2023/07/02 01:14:10;;;;;;;24.25;15.80;;;21.10;80.00;;;;;;4997436;28;20376;-70
2023/07/02 01:16:37;;;;;;;19.50;14.15;;;21.10;80.20;;;;;;4996882;28;20046;-69
2023/07/02 01:19:10;;;;;;;21.83;16.05;;;21.10;80.30;;;;;;4996860;28;20554;-69
2023/07/02 01:21:36;;;;;;;21.00;15.43;;;21.10;80.20;;;;;;4997059;28;20383;-69
2023/07/02 01:24:03;;;;;;;23.60;14.57;;;21.00;80.20;;;;;;4996942;28;20114;-69
2023/07/02 01:26:34;;;;;;;21.77;13.57;;;21.00;80.30;;;;;;4996959;28;20096;-69
2023/07/02 01:29:16;;;;;;;20.02;14.93;;;21.00;80.30;;;;;;4996980;28;20030;-69
2023/07/02 01:31:43;;;;;;;19.33;14.15;;;21.00;80.20;;;;;;4997116;28;20035;-69
2023/07/02 01:34:09;;;;;;;18.77;13.40;;;21.00;80.30;;;;;;4996284;28;20510;-70
2023/07/02 01:36:35;;;;;;;20.95;13.65;;;21.00;80.20;;;;;;4996504;28;20025;-70
2023/07/02 01:39:01;;;;;;;16.58;11.93;;;21.00;80.20;;;;;;4996540;28;20022;-68
2023/07/02 01:41:27;;;;;;;18.02;12.50;;;21.00;80.20;;;;;;4996768;28;20023;-70
2023/07/02 01:43:53;;;;;;;14.50;9.95;;;21.00;80.10;;;;;;4995373;28;20124;-69
2023/07/02 01:46:19;;;;;;;15.82;10.98;;;21.00;80.10;;;;;;4996345;28;20045;-70
2023/07/02 01:48:45;;;;;;;15.43;10.68;;;21.00;80.10;;;;;;4996607;28;20030;-69
2023/07/02 01:51:11;;;;;;;17.15;12.38;;;21.10;80.10;;;;;;4996758;28;20451;-69
2023/07/02 01:53:37;;;;;;;21.75;13.23;;;21.10;80.10;;;;;;4996234;28;20023;-70
2023/07/02 01:56:03;;;;;;;20.25;14.43;;;21.10;80.10;;;;;;4996298;28;20406;-70
2023/07/02 01:58:29;;;;;;;21.95;15.40;;;21.10;80.10;;;;;;4996219;28;20029;-69
2023/07/02 02:00:55;;;;;;;18.27;11.60;;;21.10;80.10;;;;;;4996117;28;20355;-69
2023/07/02 02:03:22;;;;;;;17.85;13.32;;;21.10;80.00;;;;;;4996415;28;20022;-69
2023/07/02 02:05:48;;;;;;;19.90;14.65;;;21.10;80.10;;;;;;4996095;28;20027;-69
2023/07/02 02:08:14;;;;;;;23.17;15.02;;;21.10;80.10;;;;;;4996069;28;20455;-69
2023/07/02 02:10:40;;;;;;;22.67;15.20;;;21.10;80.10;;;;;;4996223;28;20045;-68
2023/07/02 02:13:06;;;;;;;23.85;15.57;;;21.00;80.30;;;;;;4995962;28;20398;-69
2023/07/02 02:15:32;;;;;;;21.30;13.73;;;21.00;80.40;;;;;;4996006;28;20026;-68
2023/07/02 02:17:58;;;;;;;23.15;14.25;;;21.00;80.40;;;;;;4996471;28;20015;-71
2023/07/02 02:20:23;;;;;;;19.35;12.88;;;21.00;80.20;;;;;;4995944;28;20357;-70
2023/07/02 02:22:50;;;;;;;20.85;14.05;;;21.00;80.20;;;;;;4995853;28;20351;-69
2023/07/02 02:25:15;;;;;;;22.23;13.52;;;21.00;80.20;;;;;;4996115;28;20436;-69
2023/07/02 02:27:43;;;;;;;15.02;11.00;;;21.00;80.20;;;;;;4995868;28;20030;-69
2023/07/02 02:30:09;;;;;;;14.27;10.57;;;21.00;80.20;;;;;;4996280;28;20027;-67
2023/07/02 02:32:35;;;;;;;15.40;10.18;;;21.00;80.20;;;;;;4995825;28;20554;-69
2023/07/02 02:35:01;;;;;;;14.15;9.80;;;21.00;80.10;;;;;;4995570;28;20571;-68
2023/07/02 02:37:27;;;;;;;15.10;10.45;;;21.00;80.10;;;;;;4995764;28;20068;-67
2023/07/02 02:39:53;;;;;;;13.75;8.13;;;21.00;80.10;;;;;;4995999;28;20034;-66
2023/07/02 02:42:18;;;;;;;9.75;7.93;;;21.00;80.00;;;;;;4995658;28;20030;-68
2023/07/02 02:44:44;;;;;;;13.15;7.97;;;21.00;80.00;;;;;;4996130;28;20036;-69
2023/07/02 02:47:10;;;;;;;10.85;7.63;;;21.00;79.90;;;;;;4995896;28;20048;-68
2023/07/02 02:49:39;;;;;;;13.35;8.55;;;21.00;79.90;;;;;;4995533;28;20078;-67
2023/07/02 02:52:05;;;;;;;13.00;8.07;;;21.00;79.90;;;;;;4995540;28;20387;-67
2023/07/02 02:54:31;;;;;;;11.43;7.25;;;21.00;79.90;;;;;;4995768;28;20078;-69
2023/07/02 02:56:57;;;;;;;10.10;7.47;;;21.10;79.90;;;;;;4996736;28;20022;-69
2023/07/02 02:59:23;;;;;;;8.63;6.40;;;21.10;79.90;;;;;;4999478;28;20026;-68
2023/07/02 03:01:51;;;;;;;9.50;7.22;;;21.10;79.80;;;;;;4999433;28;20027;-70
2023/07/02 03:04:17;;;;;;;11.70;7.70;;;21.10;79.70;;;;;;4998422;28;20451;-68
2023/07/02 03:06:43;;;;;;;11.88;7.30;;;21.10;79.60;;;;;;4999559;28;20038;-70
2023/07/02 03:09:09;;;;;;;11.18;7.70;;;21.10;79.60;;;;;;4999545;28;20109;-68
2023/07/02 03:11:35;;;;;;;9.88;7.15;;;21.00;79.50;;;;;;4999420;28;20417;-69
2023/07/02 03:14:01;;;;;;;10.10;7.30;;;21.00;79.50;;;;;;4999178;28;20038;-70
2023/07/02 03:16:26;;;;;;;10.70;7.57;;;21.00;79.50;;;;;;4999431;28;20027;-67
2023/07/02 03:18:53;;;;;;;13.35;9.20;;;21.00;79.50;;;;;;4999349;28;20049;-68
2023/07/02 03:21:19;;;;;;;10.75;8.20;;;20.90;79.60;;;;;;4999074;28;20027;-68
2023/07/02 03:23:45;;;;;;;11.82;8.18;;;20.90;79.60;;;;;;4998978;28;20026;-68
2023/07/02 03:26:11;;;;;;;11.77;8.05;;;20.90;79.60;;;;;;4998919;28;20041;-68
2023/07/02 03:28:36;;;;;;;12.32;9.00;;;20.90;79.70;;;;;;4999197;28;20034;-69
2023/07/02 03:31:02;;;;;;;18.13;11.48;;;20.90;79.70;;;;;;4999074;28;20030;-68
2023/07/02 03:33:28;;;;;;;20.85;12.90;;;20.80;79.90;;;;;;4998584;28;20368;-68
2023/07/02 03:35:54;;;;;;;14.50;10.45;;;20.80;80.10;;;;;;4999092;28;20023;-70
2023/07/02 03:38:20;;;;;;;18.55;11.30;;;20.80;80.20;;;;;;4998806;28;20068;-67
2023/07/02 03:40:46;;;;;;;18.20;12.70;;;20.70;80.20;;;;;;4998749;28;20038;-68
2023/07/02 03:43:12;;;;;;;13.98;9.80;;;20.60;80.10;;;;;;4998905;28;20040;-69
2023/07/02 03:45:38;;;;;;;13.98;8.77;;;20.60;80.10;;;;;;4998668;28;20026;-68
2023/07/02 03:48:04;;;;;;;13.02;8.40;;;20.60;80.20;;;;;;4997624;28;20034;-68
2023/07/02 03:50:32;;;;;;;11.77;8.23;;;20.60;80.30;;;;;;4999016;28;20436;-68
2023/07/02 03:52:59;;;;;;;11.57;8.15;;;20.60;80.30;;;;;;4998375;28;20026;-68
2023/07/02 03:55:25;;;;;;;12.05;7.30;;;20.60;80.30;;;;;;4998520;28;20026;-68
2023/07/02 03:57:51;;;;;;;11.25;7.88;;;20.60;80.30;;;;;;4998933;28;20397;-69
2023/07/02 04:00:17;;;;;;;11.43;6.65;;;20.70;80.30;;;;;;4998388;28;20084;-68
2023/07/02 04:02:43;;;;;;;10.98;8.00;;;20.70;80.20;;;;;;4998741;28;20076;-71
2023/07/02 04:05:09;;;;;;;11.05;8.65;;;20.70;80.10;;;;;;4998572;28;20030;-68
2023/07/02 04:07:35;;;;;;;12.13;7.63;;;20.70;80.10;;;;;;4998234;28;20069;-68
2023/07/02 04:10:01;;;;;;;9.88;7.90;;;20.70;80.10;;;;;;4997846;28;20030;-69
2023/07/02 04:12:27;;;;;;;8.23;6.30;;;20.80;80.10;;;;;;4998190;28;20325;-69
2023/07/02 04:14:54;;;;;;;10.02;7.43;;;20.80;80.00;;;;;;4998017;28;20032;-68
2023/07/02 04:17:20;;;;;;;10.20;7.07;;;20.90;80.00;;;;;;4998335;28;20023;-70
2023/07/02 04:19:46;;;;;;;9.75;7.55;;;20.90;79.90;;;;;;4998302;28;20023;-67
2023/07/02 04:22:12;;;;;;;11.35;8.60;;;20.90;79.80;;;;;;4998235;28;20069;-67
2023/07/02 04:24:38;;;;;;;11.23;7.85;;;21.00;79.80;;;;;;4997765;28;20026;-70
2023/07/02 04:27:04;;;;;;;10.73;7.47;;;21.10;79.70;;;;;;4997875;28;20097;-69
2023/07/02 04:29:30;;;;;;;9.25;6.93;;;21.20;79.60;;;;;;4997701;28;20447;-70
2023/07/02 04:31:56;;;;;;;10.23;6.43;;;21.30;79.40;;;;;;4998046;28;20030;-70
2023/07/02 04:34:22;;;;;;;12.98;8.35;;;21.40;79.10;;;;;;4997644;28;20127;-67
2023/07/02 04:36:48;;;;;;;9.80;7.40;;;21.50;79.10;;;;;;4997733;28;20023;-68
2023/07/02 04:39:14;;;;;;;13.18;7.90;;;21.60;78.90;;;;;;4997696;28;20352;-70
2023/07/02 04:41:40;;;;;;;14.32;9.57;;;21.70;78.60;;;;;;4997671;28;20116;-70
2023/07/02 04:44:06;;;;;;;12.15;9.15;;;21.90;78.70;;;;;;4997485;28;20030;-69
2023/07/02 04:46:32;;;;;;;14.40;10.65;;;22.00;78.40;;;;;;4997490;28;20026;-70
2023/07/02 04:48:58;;;;;;;14.13;9.57;;;22.00;78.20;;;;;;4997749;28;20041;-70
2023/07/02 04:51:24;;;;;;;12.00;8.93;;;22.20;78.10;;;;;;4997591;28;20030;-67
2023/07/02 04:53:50;;;;;;;14.60;9.50;;;22.30;78.00;;;;;;4997366;28;20029;-69
2023/07/02 04:56:16;;;;;;;11.90;7.72;;;22.40;77.90;;;;;;4997609;28;20026;-70
2023/07/02 04:58:42;;;;;;;12.43;8.27;;;22.50;77.70;;;;;;4997562;28;20027;-69
2023/07/02 05:01:08;;;;;;;11.05;7.60;;;22.70;77.20;;;;;;4997279;28;20448;-69
2023/07/02 05:03:34;;;;;;;12.10;8.20;;;23.10;76.80;;;;;;4997384;28;20045;-68
2023/07/02 05:06:00;;;;;;;11.70;8.50;;;23.30;76.10;;;;;;4997622;28;20428;-68
2023/07/02 05:08:26;;;;;;;12.73;9.43;;;23.30;75.70;;;;;;4997623;28;20105;-69
2023/07/02 05:10:52;;;;;;;13.38;10.20;;;23.20;75.50;;;;;;4997234;28;20165;-69
2023/07/02 05:13:18;;;;;;;13.85;8.68;;;23.10;75.50;;;;;;4996940;28;20115;-69
2023/07/02 05:15:44;;;;;;;11.63;8.75;;;22.90;75.60;;;;;;4997477;28;20018;-68
2023/07/02 05:18:10;;;;;;;14.02;11.13;;;22.90;75.80;;;;;;4996899;28;20574;-68
2023/07/02 05:20:36;;;;;;;13.38;10.95;;;22.80;75.90;;;;;;4995141;28;20105;-68
2023/07/02 05:23:02;;;;;;;14.52;10.40;;;22.70;76.10;;;;;;4997244;28;20165;-69
2023/07/02 05:25:28;;;;;;;10.20;8.25;;;22.60;76.20;;;;;;4996805;28;20022;-70
2023/07/02 05:27:54;;;;;;;12.35;9.13;;;22.50;76.30;;;;;;4997034;28;20056;-68
2023/07/02 05:30:20;;;;;;;12.35;8.48;;;22.50;76.50;;;;;;4997175;28;20026;-68
2023/07/02 05:32:46;;;;;;;11.95;8.43;;;22.50;76.70;;;;;;4996586;28;20050;-70
2023/07/02 05:35:12;;;;;;;12.30;8.13;;;22.50;76.60;;;;;;4996440;28;20046;-68
2023/07/02 05:37:38;;;;;;;11.90;9.00;;;22.50;76.60;;;;;;4996546;28;20029;-70
2023/07/02 05:40:05;;;;;;;10.38;7.47;;;22.50;76.70;;;;;;4996513;28;20030;-71
2023/07/02 05:42:30;;;;;;;12.25;8.20;;;22.60;76.60;;;;;;4996441;28;20444;-70
2023/07/02 05:44:56;;;;;;;11.77;8.25;;;22.50;76.60;;;;;;4996391;28;20022;-70
2023/07/02 05:47:22;;;;;;;11.07;7.28;;;22.60;76.60;;;;;;4996614;28;20037;-70
2023/07/02 05:49:48;;;;;;;11.80;9.10;;;22.60;76.50;;;;;;4996281;28;20379;-67
2023/07/02 05:52:14;;;;;;;14.98;10.52;;;22.60;76.70;;;;;;4996592;28;20463;-69
2023/07/02 05:54:41;;;;;;;16.35;12.57;;;22.60;76.80;;;;;;4996299;28;20072;-70
2023/07/02 05:57:06;;;;;;;16.05;12.00;;;22.60;77.00;;;;;;4996826;28;20030;-69
2023/07/02 05:59:33;;;;;;;14.77;11.85;;;22.50;76.80;;;;;;4996259;28;20033;-68
2023/07/02 06:02:00;;;;;;;15.38;10.02;;;22.50;76.80;;;;;;4996237;28;20031;-68
2023/07/02 06:04:26;;;;;;;15.40;10.93;;;22.50;76.90;;;;;;4996356;28;20029;-70
2023/07/02 06:06:51;;;;;;;15.20;11.07;;;22.60;76.80;;;;;;4996669;28;20030;-68
2023/07/02 06:09:17;;;;;;;14.55;11.13;;;22.70;76.70;;;;;;4996327;28;20026;-69
2023/07/02 06:11:43;;;;;;;12.40;8.25;;;22.90;76.60;;;;;;4995971;28;20061;-69
2023/07/02 06:14:09;;;;;;;12.07;8.80;;;23.10;76.40;;;;;;4996187;28;20156;-70
2023/07/02 06:16:35;;;;;;;11.85;9.00;;;23.30;76.00;;;;;;4996515;28;20515;-68
2023/07/02 06:19:01;;;;;;;11.13;7.53;;;23.40;75.70;;;;;;4996454;28;20028;-69
2023/07/02 06:21:31;;;;;;;11.63;7.90;;;23.50;75.50;;;;;;4996409;28;20097;-69
2023/07/02 06:23:58;;;;;;;14.00;10.45;;;23.60;75.20;;;;;;4995845;28;20416;-70
2023/07/02 06:26:25;;;;;;;13.85;10.05;;;23.60;75.00;;;;;;4995875;28;20085;-69
2023/07/02 06:28:51;;;;;;;14.18;9.48;;;23.70;74.60;;;;;;4996362;28;20030;-69
2023/07/02 06:31:17;;;;;;;15.07;9.55;;;23.70;74.60;;;;;;4995826;28;20080;-67
2023/07/02 06:33:43;;;;;;;15.95;11.20;;;23.70;74.40;;;;;;4995682;28;20047;-68
2023/07/02 06:36:08;;;;;;;14.68;10.73;;;23.60;74.40;;;;;;4995648;28;20030;-69
2023/07/02 06:38:34;;;;;;;12.10;9.13;;;23.60;74.20;;;;;;4996050;28;20080;-69
2023/07/02 06:41:00;;;;;;;12.20;9.15;;;23.50;74.40;;;;;;4996288;28;20490;-69
2023/07/02 06:43:26;;;;;;;12.18;8.80;;;23.50;74.40;;;;;;4996004;28;20033;-68
2023/07/02 06:45:52;;;;;;;11.18;8.48;;;23.50;74.50;;;;;;4995955;28;20027;-68
2023/07/02 06:48:21;;;;;;;16.75;12.00;;;23.50;74.40;;;;;;4995679;28;20057;-68
2023/07/02 06:50:47;;;;;;;15.40;11.07;;;23.50;74.10;;;;;;4995555;28;20041;-70
2023/07/02 06:53:13;;;;;;;14.15;9.63;;;23.50;73.90;;;;;;4994685;28;20430;-70
2023/07/02 06:55:39;;;;;;;15.20;10.02;;;23.50;74.20;;;;;;4995604;28;20022;-68
2023/07/02 06:58:06;;;;;;;12.95;9.43;;;23.60;74.00;;;;;;4996108;28;20072;-70
2023/07/02 07:00:35;;;;;;;11.88;8.70;;;23.70;73.80;;;;;;4995796;28;20038;-68
2023/07/02 07:03:02;;;;;;;13.00;8.77;;;24.00;73.50;;;;;;4995417;28;20405;-68
2023/07/02 07:05:31;;;;;;;17.50;9.38;;;24.20;73.00;;;;;;4995464;28;20035;-69
2023/07/02 07:07:58;;;;;;;15.63;10.40;;;24.40;72.50;;;;;;4995741;28;20102;-68
2023/07/02 07:10:24;;;;;;;15.27;10.88;;;24.60;72.00;;;;;;4995355;28;20064;-70
2023/07/02 07:12:50;;;;;;;16.73;11.63;;;24.80;71.50;;;;;;4995680;28;20019;-68
2023/07/02 07:15:16;;;;;;;12.60;9.23;;;24.90;70.70;;;;;;4995442;28;20030;-68
2023/07/02 07:17:42;;;;;;;12.95;9.45;;;24.90;70.80;;;;;;4995553;28;20018;-70
2023/07/02 07:20:08;;;;;;;15.20;11.02;;;25.10;70.90;;;;;;4996357;28;20069;-68
2023/07/02 07:22:34;;;;;;;14.40;10.27;;;25.20;70.50;;;;;;4995347;28;20026;-67
2023/07/02 07:25:00;;;;;;;19.25;11.60;;;25.20;70.40;;;;;;4995258;28;20527;-69
2023/07/02 07:27:26;;;;;;;13.30;8.85;;;25.10;70.00;;;;;;4995825;28;20122;-68
2023/07/02 07:29:52;;;;;;;12.57;8.40;;;25.00;70.20;;;;;;4995211;28;20030;-68
2023/07/02 07:34:43;;;;;;;16.20;11.43;;;25.00;70.30;;;;;;4995169;28;20127;-68
2023/07/02 07:37:09;;;;;;;14.43;10.35;;;24.90;70.40;;;;;;4995244;28;20015;-68
2023/07/02 07:39:36;;;;;;;13.45;9.02;;;24.80;70.50;;;;;;4995190;28;20042;-68
2023/07/02 07:42:02;;;;;;;16.55;12.20;;;24.80;70.80;;;;;;4995317;28;20033;-68
2023/07/02 07:44:28;;;;;;;14.18;10.57;;;24.80;71.00;;;;;;4995764;28;20440;-70
2023/07/02 07:46:55;;;;;;;13.88;9.32;;;24.80;71.00;;;;;;4998753;28;20022;-70
2023/07/02 07:49:22;;;;;;;15.30;10.65;;;24.90;71.00;;;;;;4998938;28;20046;-68
2023/07/02 07:51:48;;;;;;;13.68;10.43;;;24.90;71.00;;;;;;4998365;28;20455;-70
2023/07/02 07:54:15;;;;;;;18.95;13.82;;;25.00;70.80;;;;;;4998646;28;20022;-68
2023/07/02 07:56:41;;;;;;;14.82;11.13;;;25.10;70.80;;;;;;4998326;28;20466;-70
2023/07/02 07:59:07;;;;;;;14.93;10.43;;;25.20;70.40;;;;;;4998301;28;20050;-70
2023/07/02 08:01:33;;;;;;;14.45;11.00;;;25.30;70.30;;;;;;4998841;28;20038;-71
2023/07/02 08:03:59;;;;;;;11.73;8.43;;;25.40;70.10;;;;;;4998660;28;20312;-70
2023/07/02 08:06:25;;;;;;;15.10;11.75;;;25.50;69.70;;;;;;4998448;28;20343;-68
2023/07/02 08:08:51;;;;;;;13.45;9.35;;;25.70;69.50;;;;;;4998640;28;20404;-68
2023/07/02 08:11:17;;;;;;;11.13;8.20;;;25.80;69.20;;;;;;4998482;28;20110;-68
2023/07/02 08:13:43;;;;;;;13.23;9.18;;;25.90;68.80;;;;;;4998000;28;20026;-70
2023/07/02 08:16:09;;;;;;;12.82;10.13;;;26.20;68.40;;;;;;4998570;28;20033;-69
2023/07/02 08:18:35;;;;;;;15.48;11.70;;;26.40;68.00;;;;;;4998220;28;20026;-69
2023/07/02 08:21:02;;;;;;;13.65;10.77;;;26.60;67.00;;;;;;4997970;28;20113;-68
2023/07/02 08:23:28;;;;;;;10.25;7.43;;;26.80;66.20;;;;;;4997457;28;20026;-69
2023/07/02 08:25:54;;;;;;;11.38;8.23;;;26.90;66.10;;;;;;4998104;28;20107;-68
2023/07/02 08:28:20;;;;;;;13.65;9.38;;;27.00;65.90;;;;;;4997716;28;20029;-69
2023/07/02 08:30:46;;;;;;;12.45;9.25;;;27.20;65.80;;;;;;4997905;28;20026;-69
2023/07/02 08:33:12;;;;;;;10.65;8.15;;;27.40;65.50;;;;;;4997845;28;20023;-68
2023/07/02 08:35:38;;;;;;;10.63;8.10;;;27.40;65.00;;;;;;4998178;28;20355;-68
2023/07/02 08:38:04;;;;;;;12.30;8.68;;;27.40;64.30;;;;;;4997584;28;20106;-68
2023/07/02 08:40:30;;;;;;;14.35;8.27;;;27.40;64.30;;;;;;4997599;28;20375;-69
2023/07/02 08:42:57;;;;;;;10.60;7.43;;;27.50;64.20;;;;;;4997426;28;20066;-70
2023/07/02 08:45:26;;;;;;;11.55;7.85;;;27.40;63.80;;;;;;4997727;28;20052;-69
2023/07/02 08:47:56;;;;;;;9.93;7.55;;;27.50;63.60;;;;;;4997406;28;20018;-70
2023/07/02 08:50:23;;;;;;;10.38;7.10;;;27.50;63.70;;;;;;4997288;28;20030;-69
2023/07/02 08:52:49;;;;;;;13.98;9.45;;;27.60;63.70;;;;;;4997763;28;20022;-69
2023/07/02 08:55:16;;;;;;;12.68;8.93;;;27.60;63.10;;;;;;4996167;28;20027;-69
2023/07/02 08:57:52;;;;;;;11.02;7.90;;;27.60;63.10;;;;;;4997187;28;20145;-70
2023/07/02 09:00:18;;;;;;;10.98;8.32;;;27.70;63.10;;;;;;4997439;28;20044;-69
2023/07/02 09:02:45;;;;;;;12.63;9.70;;;27.70;62.80;;;;;;4997009;28;20423;-68
2023/07/02 09:05:10;;;;;;;14.20;10.40;;;27.60;62.80;;;;;;4996980;28;20080;-70
2023/07/02 09:07:47;;;;;;;13.35;9.90;;;27.50;62.80;;;;;;4997551;28;20038;-69
2023/07/02 09:10:33;;;;;;;13.75;9.88;;;27.50;62.90;;;;;;4997198;28;20026;-70
2023/07/02 09:13:06;;;;;;;12.65;9.52;;;27.50;62.70;;;;;;4996419;28;20042;-69
2023/07/02 09:15:39;;;;;;;10.88;8.00;;;27.50;62.50;;;;;;4996860;28;20022;-70
2023/07/02 09:18:26;;;;;;;12.20;7.70;;;27.40;62.50;;;;;;4997248;28;20022;-68
2023/07/02 09:20:54;;;;;;;10.63;7.45;;;27.50;63.00;;;;;;4996772;28;20026;-70
2023/07/02 09:23:20;;;;;;;12.13;9.15;;;27.60;62.90;;;;;;4997188;28;20042;-69
2023/07/02 09:25:46;;;;;;;13.93;9.38;;;27.80;62.30;;;;;;4996696;28;20448;-69
2023/07/02 09:28:21;;;;;;;11.55;8.15;;;28.00;61.90;;;;;;4996014;28;20052;-68
2023/07/02 09:30:53;;;;;;;10.57;7.15;;;28.10;61.70;;;;;;4996549;28;20076;-70
2023/07/02 09:33:19;;;;;;;10.30;6.68;;;28.30;61.50;;;;;;4996278;28;20125;-70
2023/07/02 09:35:45;;;;;;;11.23;7.95;;;28.50;61.20;;;;;;4996808;28;20105;-69
2023/07/02 09:38:14;;;;;;;11.48;7.95;;;28.60;60.80;;;;;;4995528;28;20337;-68
2023/07/02 09:40:47;;;;;;;13.43;7.95;;;28.70;60.10;;;;;;4996528;28;20022;-69
2023/07/02 09:43:15;;;;;;;11.43;7.80;;;28.70;59.60;;;;;;4996360;28;20026;-69
2023/07/02 09:45:45;;;;;;;11.88;8.90;;;28.90;59.80;;;;;;4996845;28;20027;-68
2023/07/02 09:48:16;;;;;;;11.48;7.63;;;29.00;59.70;;;;;;4996280;28;20084;-68
2023/07/02 09:50:48;;;;;;;10.82;8.05;;;29.20;59.40;;;;;;4996480;28;20042;-69
2023/07/02 09:53:14;;;;;;;9.75;7.35;;;29.40;59.30;;;;;;4996382;28;20030;-68
2023/07/02 09:55:42;;;;;;;11.68;8.30;;;29.40;57.80;;;;;;4996751;28;20049;-69
2023/07/02 09:58:10;;;;;;;11.40;8.02;;;29.40;57.00;;;;;;4996159;28;20026;-68
2023/07/02 10:00:36;;;;;;;9.77;7.25;;;29.50;56.80;;;;;;4996186;28;20031;-69
2023/07/02 10:03:02;;;;;;;11.43;8.00;;;29.60;56.80;;;;;;4996494;28;20026;-69
2023/07/02 10:05:31;;;;;;;12.02;7.78;;;29.70;56.00;;;;;;4995440;28;20053;-69
2023/07/02 10:07:59;;;;;;;12.05;8.88;;;29.80;55.70;;;;;;4995812;28;20057;-69
2023/07/02 10:10:34;;;;;;;10.73;7.65;;;29.90;55.90;;;;;;4996154;28;20030;-68
2023/07/02 10:13:01;;;;;;;11.65;7.90;;;30.00;55.90;;;;;;4996194;28;20018;-69
2023/07/02 10:15:29;;;;;;;14.27;10.77;;;30.10;54.90;;;;;;4995942;28;20061;-69
2023/07/02 10:18:00;;;;;;;12.10;9.43;;;30.10;54.50;;;;;;4995940;28;20026;-68
2023/07/02 10:20:33;;;;;;;17.83;12.85;;;30.10;54.50;;;;;;4995849;28;20030;-70
2023/07/02 10:23:01;;;;;;;10.82;8.27;;;29.90;54.70;;;;;;4994779;28;20031;-68
2023/07/02 10:25:33;;;;;;;11.80;8.85;;;29.80;55.40;;;;;;4995765;28;20041;-69
2023/07/02 10:28:01;;;;;;;10.97;7.80;;;29.80;55.50;;;;;;4996103;28;20112;-69
2023/07/02 10:30:36;;;;;;;13.07;8.88;;;29.90;55.10;;;;;;4995625;28;20027;-69
2023/07/02 10:33:16;;;;;;;12.75;9.20;;;30.00;54.70;;;;;;4995541;28;20084;-68
2023/07/02 10:35:49;;;;;;;12.98;8.98;;;30.00;54.40;;;;;;4995991;28;20109;-69
2023/07/02 10:38:17;;;;;;;12.80;8.88;;;30.10;54.20;;;;;;4996453;28;20117;-68
2023/07/02 10:40:44;;;;;;;12.57;9.20;;;30.10;54.40;;;;;;4996127;28;20085;-69
2023/07/02 10:43:10;;;;;;;14.48;9.90;;;30.20;53.90;;;;;;4995551;28;20080;-69
2023/07/02 10:45:36;;;;;;;13.23;9.45;;;30.10;54.20;;;;;;4996172;28;20396;-68
2023/07/02 10:48:09;;;;;;;14.00;10.57;;;30.00;54.50;;;;;;4996114;28;20062;-68
2023/07/02 10:50:35;;;;;;;;;;;30.10;55.10;;;;;;4995910;28;20090;-68
2023/07/02 10:53:01;;;;;;;11.60;8.45;;;30.20;54.90;;;;;;4995881;28;19937;-69
2023/07/02 10:55:31;;;;;;;13.07;9.38;;;30.20;55.10;;;;;;4995424;28;20034;-69
2023/07/02 10:58:10;;;;;;;13.77;10.35;;;30.10;54.50;;;;;;4995387;28;20034;-68
2023/07/02 11:00:50;;;;;;;14.88;10.32;;;29.90;55.00;;;;;;4995694;28;20414;-68
2023/07/02 11:03:18;;;;;;;12.70;9.23;;;29.80;55.20;;;;;;4995641;28;20027;-69
2023/07/02 11:05:45;;;;;;;14.98;11.85;;;29.70;55.90;;;;;;4994524;28;20044;-68
2023/07/02 11:08:12;;;;;;;16.65;11.13;;;29.60;55.90;;;;;;4995637;28;20022;-69
2023/07/02 11:10:38;;;;;;;12.90;9.32;;;29.50;56.10;;;;;;4995301;28;20058;-69
2023/07/02 11:13:31;;;;;;;16.08;10.93;;;29.50;55.80;;;;;;4995496;28;20094;-68
2023/07/02 11:15:56;;;;;;;15.43;10.48;;;29.40;55.60;;;;;;4993392;28;20360;-69
2023/07/02 11:18:22;;;;;;;13.27;9.77;;;29.40;55.40;;;;;;5010850;28;20022;-69
2023/07/02 11:20:50;;;;;;;14.00;10.05;;;29.30;55.40;;;;;;4999279;28;20081;-68
2023/07/02 11:23:24;;;;;;;13.50;10.55;;;29.30;55.60;;;;;;4999314;28;20026;-69
2023/07/02 11:26:00;;;;;;;11.85;8.60;;;29.30;55.20;;;;;;4998907;28;20436;-69
2023/07/02 11:28:28;;;;;;;12.43;10.07;;;29.40;55.40;;;;;;4998026;28;20451;-68
2023/07/02 11:30:54;;;;;;;12.30;9.18;;;29.50;55.60;;;;;;4997857;28;20394;-69
2023/07/02 11:33:36;;;;;;;11.40;8.43;;;29.60;55.40;;;;;;4998470;28;20053;-70
2023/07/02 11:36:04;;;;;;;13.15;8.88;;;29.70;55.10;;;;;;4999337;28;20018;-69
2023/07/02 11:38:30;;;;;;;11.95;8.52;;;29.70;54.70;;;;;;4999007;28;20435;-68
2023/07/02 11:40:57;;;;;;;13.35;9.50;;;29.70;54.70;;;;;;4998653;28;20031;-68
2023/07/02 11:43:22;;;;;;;10.65;8.23;;;29.70;53.90;;;;;;4999086;28;20333;-69
2023/07/02 11:45:48;;;;;;;11.95;8.93;;;29.70;54.20;;;;;;4999082;28;20031;-70
2023/07/02 11:48:14;;;;;;;14.27;10.63;;;29.70;54.30;;;;;;4999087;28;20058;-69
2023/07/02 11:50:40;;;;;;;12.48;9.63;;;29.80;54.00;;;;;;4998399;28;20026;-69
2023/07/02 11:53:09;;;;;;;13.57;10.57;;;29.70;54.30;;;;;;4998345;28;20094;-69
2023/07/02 11:55:36;;;;;;;11.20;9.15;;;29.70;54.20;;;;;;4998353;28;20387;-68
2023/07/02 11:58:02;;;;;;;15.10;11.05;;;29.70;54.70;;;;;;4998631;28;20030;-69
2023/07/02 12:00:28;;;;;;;14.75;10.93;;;29.80;54.20;;;;;;4998324;28;20030;-69
2023/07/02 12:02:55;;;;;;;14.13;11.00;;;29.80;54.40;;;;;;4998147;28;20030;-70
2023/07/02 12:05:21;;;;;;;13.18;10.35;;;29.70;54.30;;;;;;4998230;28;20503;-69
2023/07/02 12:07:48;;;;;;;10.52;8.18;;;29.60;54.70;;;;;;4998454;28;20033;-69
2023/07/02 12:10:14;;;;;;;11.25;8.25;;;29.60;54.90;;;;;;4998546;28;20042;-68
2023/07/02 12:12:42;;;;;;;9.20;7.55;;;29.50;55.00;;;;;;4997177;28;20018;-69
2023/07/02 12:15:08;;;;;;;10.38;8.25;;;29.60;55.20;;;;;;4998091;28;20030;-69
2023/07/02 12:17:34;;;;;;;14.05;9.05;;;29.70;54.50;;;;;;4998651;28;20101;-69
2023/07/02 12:20:00;;;;;;;10.75;7.78;;;29.80;54.20;;;;;;4998059;28;20050;-69
2023/07/02 12:22:26;;;;;;;10.95;8.73;;;29.90;54.30;;;;;;4998249;28;20049;-67
2023/07/02 12:24:56;;;;;;;12.65;9.98;;;30.00;54.40;;;;;;4997792;28;20029;-68
2023/07/02 12:27:22;;;;;;;10.73;7.97;;;30.10;54.40;;;;;;4998081;28;20431;-69
2023/07/02 12:32:13;;;;;;;11.38;9.23;;;30.20;54.40;;;;;;4998318;28;20093;-70
2023/07/02 12:34:39;;;;;;;12.07;8.63;;;30.20;54.40;;;;;;4997434;28;20042;-69
2023/07/02 12:37:07;;;;;;;10.32;8.13;;;30.20;54.20;;;;;;4997956;28;20026;-70